Terminal Aerodrome Forecast
Issued by NWS Knoxville/Tri Cities, TN

Home | Current Version | Previous Version | Text Only | Print | Product List | Glossary On
Versions: 1 2 3 4 5 6 7 8 9 10 11 12 13
000
FTUS44 KMRX 261123
TAFTYS
TAF
KTYS 261123Z 2612/2712 20011KT P6SM VCSH SCT050 OVC090
     FM261600 23017G26KT P6SM VCTS BKN040CB
     FM262300 22008KT P6SM VCSH BKN050
     FM270100 VRB04KT P6SM BKN050=

USA.gov is the U.S. government's official web portal to all federal, state and local government web resources and services.